sensor_id;sensor_type;location;lat;lon;timestamp;P1;durP1;ratioP1;P2;durP2;ratioP2
50605;SDS011;36557;53.572;10.170;2022-11-11T00:01:03;7.78;;;2.17;;
50605;SDS011;36557;53.572;10.170;2022-11-11T00:03:35;6.40;;;1.90;;
50605;SDS011;36557;53.572;10.170;2022-11-11T00:06:05;7.15;;;1.80;;
50605;SDS011;36557;53.572;10.170;2022-11-11T00:08:34;7.13;;;1.83;;
50605;SDS011;36557;53.572;10.170;2022-11-11T00:11:03;8.38;;;2.15;;
50605;SDS011;36557;53.572;10.170;2022-11-11T00:13:34;7.80;;;1.95;;
50605;SDS011;36557;53.572;10.170;2022-11-11T00:16:05;7.60;;;2.30;;
50605;SDS011;36557;53.572;10.170;2022-11-11T00:18:33;8.35;;;1.80;;
50605;SDS011;36557;53.572;10.170;2022-11-11T00:21:17;10.38;;;2.47;;
50605;SDS011;36557;53.572;10.170;2022-11-11T00:24:44;6.93;;;1.80;;
50605;SDS011;36557;53.572;10.170;2022-11-11T00:27:13;7.00;;;1.70;;
50605;SDS011;36557;53.572;10.170;2022-11-11T00:29:40;7.35;;;1.80;;
50605;SDS011;36557;53.572;10.170;2022-11-11T00:32:06;8.23;;;2.53;;
50605;SDS011;36557;53.572;10.170;2022-11-11T00:34:52;10.15;;;2.20;;
50605;SDS011;36557;53.572;10.170;2022-11-11T00:37:38;9.23;;;2.33;;
50605;SDS011;36557;53.572;10.170;2022-11-11T00:40:06;6.00;;;2.22;;
50605;SDS011;36557;53.572;10.170;2022-11-11T00:42:32;6.40;;;2.50;;
50605;SDS011;36557;53.572;10.170;2022-11-11T00:44:58;9.00;;;2.65;;
50605;SDS011;36557;53.572;10.170;2022-11-11T00:47:24;7.68;;;2.90;;
50605;SDS011;36557;53.572;10.170;2022-11-11T00:50:13;4.97;;;2.60;;
50605;SDS011;36557;53.572;10.170;2022-11-11T00:52:57;8.18;;;3.08;;
50605;SDS011;36557;53.572;10.170;2022-11-11T00:55:23;7.53;;;2.85;;
50605;SDS011;36557;53.572;10.170;2022-11-11T00:57:48;9.30;;;2.60;;
50605;SDS011;36557;53.572;10.170;2022-11-11T01:00:14;7.95;;;2.55;;
50605;SDS011;36557;53.572;10.170;2022-11-11T01:02:40;10.13;;;3.10;;
50605;SDS011;36557;53.572;10.170;2022-11-11T01:05:06;12.57;;;2.95;;
50605;SDS011;36557;53.572;10.170;2022-11-11T01:07:32;8.55;;;2.85;;
50605;SDS011;36557;53.572;10.170;2022-11-11T01:09:57;6.20;;;2.60;;
50605;SDS011;36557;53.572;10.170;2022-11-11T01:12:23;8.38;;;2.70;;
50605;SDS011;36557;53.572;10.170;2022-11-11T01:14:49;7.80;;;3.00;;
50605;SDS011;36557;53.572;10.170;2022-11-11T01:17:15;4.43;;;2.50;;
50605;SDS011;36557;53.572;10.170;2022-11-11T01:19:40;12.63;;;2.92;;
50605;SDS011;36557;53.572;10.170;2022-11-11T01:22:06;10.35;;;3.20;;
50605;SDS011;36557;53.572;10.170;2022-11-11T01:24:32;7.25;;;3.33;;
50605;SDS011;36557;53.572;10.170;2022-11-11T01:26:57;7.40;;;3.15;;
50605;SDS011;36557;53.572;10.170;2022-11-11T01:29:23;6.75;;;2.92;;
50605;SDS011;36557;53.572;10.170;2022-11-11T01:31:49;8.13;;;2.78;;
50605;SDS011;36557;53.572;10.170;2022-11-11T01:34:14;6.55;;;3.10;;
50605;SDS011;36557;53.572;10.170;2022-11-11T01:36:40;10.60;;;3.25;;
50605;SDS011;36557;53.572;10.170;2022-11-11T01:39:06;9.93;;;3.78;;
50605;SDS011;36557;53.572;10.170;2022-11-11T01:41:32;9.10;;;3.38;;
50605;SDS011;36557;53.572;10.170;2022-11-11T01:46:42;7.85;;;3.00;;
50605;SDS011;36557;53.572;10.170;2022-11-11T01:54:33;8.32;;;2.97;;
50605;SDS011;36557;53.572;10.170;2022-11-11T01:57:10;11.02;;;3.30;;
50605;SDS011;36557;53.572;10.170;2022-11-11T01:59:37;9.27;;;2.97;;
50605;SDS011;36557;53.572;10.170;2022-11-11T02:02:06;7.80;;;2.83;;
50605;SDS011;36557;53.572;10.170;2022-11-11T02:04:39;8.30;;;3.28;;
50605;SDS011;36557;53.572;10.170;2022-11-11T02:07:24;7.90;;;3.07;;
50605;SDS011;36557;53.572;10.170;2022-11-11T02:09:50;8.88;;;3.17;;
50605;SDS011;36557;53.572;10.170;2022-11-11T02:12:16;8.00;;;3.08;;
50605;SDS011;36557;53.572;10.170;2022-11-11T02:15:01;8.93;;;2.80;;
50605;SDS011;36557;53.572;10.170;2022-11-11T02:17:27;11.88;;;3.50;;
50605;SDS011;36557;53.572;10.170;2022-11-11T02:19:59;10.52;;;3.45;;
50605;SDS011;36557;53.572;10.170;2022-11-11T02:22:32;6.15;;;2.65;;
50605;SDS011;36557;53.572;10.170;2022-11-11T02:25:21;6.35;;;3.33;;
50605;SDS011;36557;53.572;10.170;2022-11-11T02:27:50;8.73;;;3.38;;
50605;SDS011;36557;53.572;10.170;2022-11-11T02:30:19;7.60;;;3.80;;
50605;SDS011;36557;53.572;10.170;2022-11-11T02:32:51;9.30;;;3.40;;
50605;SDS011;36557;53.572;10.170;2022-11-11T02:35:21;8.80;;;3.70;;
50605;SDS011;36557;53.572;10.170;2022-11-11T02:38:08;9.90;;;3.13;;
50605;SDS011;36557;53.572;10.170;2022-11-11T02:40:41;4.60;;;2.95;;
50605;SDS011;36557;53.572;10.170;2022-11-11T02:43:35;13.00;;;3.72;;
50605;SDS011;36557;53.572;10.170;2022-11-11T02:46:01;10.18;;;3.50;;
50605;SDS011;36557;53.572;10.170;2022-11-11T02:48:28;9.48;;;3.22;;
50605;SDS011;36557;53.572;10.170;2022-11-11T02:50:54;9.30;;;3.17;;
50605;SDS011;36557;53.572;10.170;2022-11-11T02:53:20;7.15;;;3.40;;
50605;SDS011;36557;53.572;10.170;2022-11-11T02:55:46;6.85;;;3.30;;
50605;SDS011;36557;53.572;10.170;2022-11-11T02:58:12;9.48;;;3.00;;
50605;SDS011;36557;53.572;10.170;2022-11-11T03:00:39;5.93;;;3.00;;
50605;SDS011;36557;53.572;10.170;2022-11-11T03:03:06;7.78;;;3.08;;
50605;SDS011;36557;53.572;10.170;2022-11-11T03:05:32;6.78;;;3.00;;
50605;SDS011;36557;53.572;10.170;2022-11-11T03:07:58;6.50;;;3.00;;
50605;SDS011;36557;53.572;10.170;2022-11-11T03:10:24;10.82;;;3.70;;
50605;SDS011;36557;53.572;10.170;2022-11-11T03:12:50;8.60;;;3.15;;
50605;SDS011;36557;53.572;10.170;2022-11-11T03:15:15;12.43;;;3.17;;
50605;SDS011;36557;53.572;10.170;2022-11-11T03:17:41;11.50;;;3.55;;
50605;SDS011;36557;53.572;10.170;2022-11-11T03:20:10;11.02;;;3.30;;
50605;SDS011;36557;53.572;10.170;2022-11-11T03:25:39;7.40;;;2.90;;
50605;SDS011;36557;53.572;10.170;2022-11-11T03:28:07;10.38;;;3.15;;
50605;SDS011;36557;53.572;10.170;2022-11-11T03:30:35;9.50;;;3.20;;
50605;SDS011;36557;53.572;10.170;2022-11-11T03:33:03;8.50;;;3.28;;
50605;SDS011;36557;53.572;10.170;2022-11-11T03:35:28;9.07;;;3.67;;
50605;SDS011;36557;53.572;10.170;2022-11-11T03:37:54;9.75;;;3.42;;
50605;SDS011;36557;53.572;10.170;2022-11-11T03:40:39;8.55;;;3.25;;
50605;SDS011;36557;53.572;10.170;2022-11-11T03:43:05;9.00;;;3.33;;
50605;SDS011;36557;53.572;10.170;2022-11-11T03:45:31;13.05;;;3.85;;
50605;SDS011;36557;53.572;10.170;2022-11-11T03:47:57;10.82;;;3.58;;
50605;SDS011;36557;53.572;10.170;2022-11-11T03:50:23;10.43;;;3.30;;
50605;SDS011;36557;53.572;10.170;2022-11-11T03:52:48;9.00;;;3.35;;
50605;SDS011;36557;53.572;10.170;2022-11-11T03:55:14;9.57;;;3.20;;
50605;SDS011;36557;53.572;10.170;2022-11-11T03:57:40;9.55;;;3.60;;
50605;SDS011;36557;53.572;10.170;2022-11-11T04:00:09;8.23;;;3.08;;
50605;SDS011;36557;53.572;10.170;2022-11-11T04:02:36;11.25;;;3.70;;
50605;SDS011;36557;53.572;10.170;2022-11-11T04:05:21;12.65;;;3.58;;
50605;SDS011;36557;53.572;10.170;2022-11-11T04:08:08;8.37;;;3.67;;
50605;SDS011;36557;53.572;10.170;2022-11-11T04:10:55;9.77;;;3.50;;
50605;SDS011;36557;53.572;10.170;2022-11-11T04:13:26;8.80;;;2.80;;
50605;SDS011;36557;53.572;10.170;2022-11-11T04:16:11;11.20;;;3.80;;
50605;SDS011;36557;53.572;10.170;2022-11-11T04:18:37;10.25;;;3.70;;
50605;SDS011;36557;53.572;10.170;2022-11-11T04:21:22;8.00;;;3.47;;
50605;SDS011;36557;53.572;10.170;2022-11-11T04:24:07;10.55;;;3.80;;
50605;SDS011;36557;53.572;10.170;2022-11-11T04:26:54;5.90;;;3.13;;
50605;SDS011;36557;53.572;10.170;2022-11-11T04:29:21;12.38;;;3.92;;
50605;SDS011;36557;53.572;10.170;2022-11-11T04:31:56;11.70;;;3.80;;
50605;SDS011;36557;53.572;10.170;2022-11-11T04:34:41;7.43;;;3.70;;
50605;SDS011;36557;53.572;10.170;2022-11-11T04:37:07;8.20;;;3.90;;
50605;SDS011;36557;53.572;10.170;2022-11-11T04:39:33;8.98;;;3.38;;
50605;SDS011;36557;53.572;10.170;2022-11-11T04:42:18;12.95;;;4.22;;
50605;SDS011;36557;53.572;10.170;2022-11-11T04:44:43;7.53;;;4.07;;
50605;SDS011;36557;53.572;10.170;2022-11-11T04:47:27;11.10;;;4.50;;
50605;SDS011;36557;53.572;10.170;2022-11-11T04:49:53;10.10;;;4.35;;
50605;SDS011;36557;53.572;10.170;2022-11-11T04:52:19;11.90;;;4.43;;
50605;SDS011;36557;53.572;10.170;2022-11-11T04:54:50;8.63;;;4.03;;
50605;SDS011;36557;53.572;10.170;2022-11-11T04:57:39;13.93;;;4.43;;
50605;SDS011;36557;53.572;10.170;2022-11-11T05:00:07;9.70;;;4.65;;
50605;SDS011;36557;53.572;10.170;2022-11-11T05:02:36;9.63;;;4.68;;
50605;SDS011;36557;53.572;10.170;2022-11-11T05:05:21;10.75;;;4.38;;
50605;SDS011;36557;53.572;10.170;2022-11-11T05:07:48;11.35;;;4.75;;
50605;SDS011;36557;53.572;10.170;2022-11-11T05:10:33;8.97;;;4.87;;
50605;SDS011;36557;53.572;10.170;2022-11-11T05:12:58;12.18;;;5.18;;
50605;SDS011;36557;53.572;10.170;2022-11-11T05:15:43;13.18;;;4.43;;
50605;SDS011;36557;53.572;10.170;2022-11-11T05:18:27;12.80;;;4.77;;
50605;SDS011;36557;53.572;10.170;2022-11-11T05:21:15;9.65;;;4.55;;
50605;SDS011;36557;53.572;10.170;2022-11-11T05:23:50;11.95;;;4.45;;
50605;SDS011;36557;53.572;10.170;2022-11-11T05:26:34;10.20;;;4.45;;
50605;SDS011;36557;53.572;10.170;2022-11-11T05:29:00;8.60;;;4.55;;
50605;SDS011;36557;53.572;10.170;2022-11-11T05:31:27;9.30;;;4.25;;
50605;SDS011;36557;53.572;10.170;2022-11-11T05:33:53;12.23;;;4.93;;
50605;SDS011;36557;53.572;10.170;2022-11-11T05:36:19;10.77;;;4.97;;
50605;SDS011;36557;53.572;10.170;2022-11-11T05:38:45;11.05;;;5.32;;
50605;SDS011;36557;53.572;10.170;2022-11-11T05:41:10;13.48;;;5.53;;
50605;SDS011;36557;53.572;10.170;2022-11-11T05:43:36;12.90;;;5.18;;
50605;SDS011;36557;53.572;10.170;2022-11-11T05:46:02;14.98;;;5.18;;
50605;SDS011;36557;53.572;10.170;2022-11-11T05:48:29;12.88;;;5.40;;
50605;SDS011;36557;53.572;10.170;2022-11-11T05:50:58;10.82;;;5.03;;
50605;SDS011;36557;53.572;10.170;2022-11-11T05:53:24;13.95;;;5.78;;
50605;SDS011;36557;53.572;10.170;2022-11-11T05:55:50;11.45;;;5.60;;
50605;SDS011;36557;53.572;10.170;2022-11-11T05:58:16;15.10;;;5.25;;
50605;SDS011;36557;53.572;10.170;2022-11-11T06:00:43;13.68;;;5.32;;
50605;SDS011;36557;53.572;10.170;2022-11-11T06:03:08;10.45;;;5.15;;
50605;SDS011;36557;53.572;10.170;2022-11-11T06:05:35;11.55;;;4.72;;
50605;SDS011;36557;53.572;10.170;2022-11-11T06:08:01;12.80;;;5.60;;
50605;SDS011;36557;53.572;10.170;2022-11-11T06:10:31;14.20;;;5.47;;
50605;SDS011;36557;53.572;10.170;2022-11-11T06:12:58;12.40;;;5.30;;
50605;SDS011;36557;53.572;10.170;2022-11-11T06:15:29;14.85;;;5.25;;
50605;SDS011;36557;53.572;10.170;2022-11-11T06:18:02;13.23;;;5.88;;
50605;SDS011;36557;53.572;10.170;2022-11-11T06:20:28;11.48;;;5.28;;
50605;SDS011;36557;53.572;10.170;2022-11-11T06:22:54;10.65;;;5.55;;
50605;SDS011;36557;53.572;10.170;2022-11-11T06:25:21;13.48;;;6.18;;
50605;SDS011;36557;53.572;10.170;2022-11-11T06:28:09;15.07;;;6.28;;
50605;SDS011;36557;53.572;10.170;2022-11-11T06:30:36;17.75;;;6.55;;
50605;SDS011;36557;53.572;10.170;2022-11-11T06:33:02;13.20;;;6.60;;
50605;SDS011;36557;53.572;10.170;2022-11-11T06:35:28;12.35;;;6.10;;
50605;SDS011;36557;53.572;10.170;2022-11-11T06:37:54;18.17;;;6.38;;
50605;SDS011;36557;53.572;10.170;2022-11-11T06:40:19;9.00;;;5.55;;
50605;SDS011;36557;53.572;10.170;2022-11-11T06:42:45;14.38;;;6.07;;
50605;SDS011;36557;53.572;10.170;2022-11-11T06:45:11;12.10;;;6.10;;
50605;SDS011;36557;53.572;10.170;2022-11-11T06:47:36;13.85;;;6.85;;
50605;SDS011;36557;53.572;10.170;2022-11-11T06:50:02;13.10;;;6.35;;
50605;SDS011;36557;53.572;10.170;2022-11-11T06:52:28;19.83;;;6.30;;
50605;SDS011;36557;53.572;10.170;2022-11-11T06:54:54;14.18;;;7.22;;
50605;SDS011;36557;53.572;10.170;2022-11-11T06:57:21;13.90;;;7.07;;
50605;SDS011;36557;53.572;10.170;2022-11-11T06:59:47;15.32;;;6.65;;
50605;SDS011;36557;53.572;10.170;2022-11-11T07:02:13;12.05;;;6.60;;
50605;SDS011;36557;53.572;10.170;2022-11-11T07:04:39;14.13;;;6.32;;
50605;SDS011;36557;53.572;10.170;2022-11-11T07:07:04;11.32;;;6.60;;
50605;SDS011;36557;53.572;10.170;2022-11-11T07:09:30;15.07;;;7.30;;
50605;SDS011;36557;53.572;10.170;2022-11-11T07:11:56;15.05;;;7.45;;
50605;SDS011;36557;53.572;10.170;2022-11-11T07:14:22;15.82;;;7.60;;
50605;SDS011;36557;53.572;10.170;2022-11-11T07:16:47;14.95;;;7.00;;
50605;SDS011;36557;53.572;10.170;2022-11-11T07:19:13;13.52;;;7.97;;
50605;SDS011;36557;53.572;10.170;2022-11-11T07:21:39;14.10;;;7.70;;
50605;SDS011;36557;53.572;10.170;2022-11-11T07:24:04;24.33;;;8.23;;
50605;SDS011;36557;53.572;10.170;2022-11-11T07:26:30;15.63;;;8.23;;
50605;SDS011;36557;53.572;10.170;2022-11-11T07:28:56;17.08;;;8.05;;
50605;SDS011;36557;53.572;10.170;2022-11-11T07:31:22;18.73;;;7.43;;
50605;SDS011;36557;53.572;10.170;2022-11-11T07:33:47;12.73;;;7.35;;
50605;SDS011;36557;53.572;10.170;2022-11-11T07:36:13;13.68;;;7.72;;
50605;SDS011;36557;53.572;10.170;2022-11-11T07:38:39;16.20;;;7.72;;
50605;SDS011;36557;53.572;10.170;2022-11-11T07:41:05;14.18;;;7.10;;
50605;SDS011;36557;53.572;10.170;2022-11-11T07:43:30;15.07;;;7.60;;
50605;SDS011;36557;53.572;10.170;2022-11-11T07:45:56;17.05;;;8.60;;
50605;SDS011;36557;53.572;10.170;2022-11-11T07:48:22;20.70;;;8.48;;
50605;SDS011;36557;53.572;10.170;2022-11-11T07:50:47;15.10;;;7.78;;
50605;SDS011;36557;53.572;10.170;2022-11-11T07:53:15;16.67;;;7.95;;
50605;SDS011;36557;53.572;10.170;2022-11-11T07:55:41;16.00;;;8.65;;
50605;SDS011;36557;53.572;10.170;2022-11-11T07:58:10;14.18;;;8.15;;
50605;SDS011;36557;53.572;10.170;2022-11-11T08:00:36;19.50;;;8.43;;
50605;SDS011;36557;53.572;10.170;2022-11-11T08:03:02;19.88;;;8.75;;
50605;SDS011;36557;53.572;10.170;2022-11-11T08:05:28;22.13;;;9.43;;
50605;SDS011;36557;53.572;10.170;2022-11-11T08:07:54;16.70;;;8.02;;
50605;SDS011;36557;53.572;10.170;2022-11-11T08:10:20;15.63;;;8.82;;
50605;SDS011;36557;53.572;10.170;2022-11-11T08:12:52;18.02;;;8.32;;
50605;SDS011;36557;53.572;10.170;2022-11-11T08:15:37;18.38;;;8.07;;
50605;SDS011;36557;53.572;10.170;2022-11-11T08:18:02;16.63;;;8.55;;
50605;SDS011;36557;53.572;10.170;2022-11-11T08:20:28;16.90;;;8.40;;
50605;SDS011;36557;53.572;10.170;2022-11-11T08:22:54;19.05;;;9.02;;
50605;SDS011;36557;53.572;10.170;2022-11-11T08:25:22;16.60;;;7.90;;
50605;SDS011;36557;53.572;10.170;2022-11-11T08:27:48;18.63;;;8.80;;
50605;SDS011;36557;53.572;10.170;2022-11-11T08:30:14;19.95;;;9.23;;
50605;SDS011;36557;53.572;10.170;2022-11-11T08:32:39;15.10;;;8.68;;
50605;SDS011;36557;53.572;10.170;2022-11-11T08:35:05;18.17;;;8.40;;
50605;SDS011;36557;53.572;10.170;2022-11-11T08:37:31;17.75;;;9.13;;
50605;SDS011;36557;53.572;10.170;2022-11-11T08:39:57;14.35;;;8.43;;
50605;SDS011;36557;53.572;10.170;2022-11-11T08:42:23;16.25;;;9.25;;
50605;SDS011;36557;53.572;10.170;2022-11-11T08:44:49;16.52;;;9.05;;
50605;SDS011;36557;53.572;10.170;2022-11-11T08:47:15;17.58;;;8.75;;
50605;SDS011;36557;53.572;10.170;2022-11-11T08:49:41;16.65;;;7.85;;
50605;SDS011;36557;53.572;10.170;2022-11-11T08:52:07;15.50;;;8.13;;
50605;SDS011;36557;53.572;10.170;2022-11-11T08:54:33;19.52;;;9.43;;
50605;SDS011;36557;53.572;10.170;2022-11-11T08:59:35;18.00;;;9.45;;
50605;SDS011;36557;53.572;10.170;2022-11-11T09:02:01;15.77;;;8.32;;
50605;SDS011;36557;53.572;10.170;2022-11-11T09:04:27;16.40;;;8.52;;
50605;SDS011;36557;53.572;10.170;2022-11-11T09:06:52;19.20;;;7.97;;
50605;SDS011;36557;53.572;10.170;2022-11-11T09:09:18;16.20;;;8.73;;
50605;SDS011;36557;53.572;10.170;2022-11-11T09:11:44;16.00;;;8.18;;
50605;SDS011;36557;53.572;10.170;2022-11-11T09:14:09;17.27;;;9.65;;
50605;SDS011;36557;53.572;10.170;2022-11-11T09:16:35;16.70;;;8.73;;
50605;SDS011;36557;53.572;10.170;2022-11-11T09:19:01;18.90;;;8.27;;
50605;SDS011;36557;53.572;10.170;2022-11-11T09:21:27;15.80;;;7.15;;
50605;SDS011;36557;53.572;10.170;2022-11-11T09:23:52;13.75;;;8.60;;
50605;SDS011;36557;53.572;10.170;2022-11-11T09:26:18;19.25;;;8.57;;
50605;SDS011;36557;53.572;10.170;2022-11-11T09:28:44;23.02;;;7.88;;
50605;SDS011;36557;53.572;10.170;2022-11-11T09:31:09;15.30;;;8.32;;
50605;SDS011;36557;53.572;10.170;2022-11-11T09:33:35;17.88;;;8.90;;
50605;SDS011;36557;53.572;10.170;2022-11-11T09:36:01;12.60;;;8.13;;
50605;SDS011;36557;53.572;10.170;2022-11-11T09:38:26;13.65;;;8.38;;
50605;SDS011;36557;53.572;10.170;2022-11-11T09:46:16;19.23;;;9.23;;
50605;SDS011;36557;53.572;10.170;2022-11-11T09:51:43;20.15;;;10.32;;
50605;SDS011;36557;53.572;10.170;2022-11-11T09:54:29;16.67;;;8.20;;
50605;SDS011;36557;53.572;10.170;2022-11-11T09:57:02;14.10;;;8.57;;
50605;SDS011;36557;53.572;10.170;2022-11-11T09:59:42;22.55;;;8.75;;
50605;SDS011;36557;53.572;10.170;2022-11-11T10:02:27;17.08;;;9.20;;
50605;SDS011;36557;53.572;10.170;2022-11-11T10:05:02;13.88;;;8.48;;
50605;SDS011;36557;53.572;10.170;2022-11-11T10:07:35;20.02;;;8.45;;
50605;SDS011;36557;53.572;10.170;2022-11-11T10:10:13;18.40;;;9.32;;
50605;SDS011;36557;53.572;10.170;2022-11-11T10:12:49;17.15;;;8.55;;
50605;SDS011;36557;53.572;10.170;2022-11-11T10:15:19;21.30;;;9.25;;
50605;SDS011;36557;53.572;10.170;2022-11-11T10:17:52;19.48;;;8.48;;
50605;SDS011;36557;53.572;10.170;2022-11-11T10:20:25;18.23;;;8.80;;
50605;SDS011;36557;53.572;10.170;2022-11-11T10:23:02;15.30;;;8.23;;
50605;SDS011;36557;53.572;10.170;2022-11-11T10:25:52;17.15;;;8.55;;
50605;SDS011;36557;53.572;10.170;2022-11-11T10:28:21;14.80;;;8.00;;
50605;SDS011;36557;53.572;10.170;2022-11-11T10:30:52;14.90;;;9.25;;
50605;SDS011;36557;53.572;10.170;2022-11-11T10:33:26;17.20;;;8.27;;
50605;SDS011;36557;53.572;10.170;2022-11-11T10:36:12;17.98;;;8.18;;
50605;SDS011;36557;53.572;10.170;2022-11-11T10:38:56;16.83;;;8.30;;
50605;SDS011;36557;53.572;10.170;2022-11-11T10:41:26;15.63;;;7.18;;
50605;SDS011;36557;53.572;10.170;2022-11-11T10:44:22;14.90;;;8.45;;
50605;SDS011;36557;53.572;10.170;2022-11-11T10:49:23;15.82;;;7.80;;
50605;SDS011;36557;53.572;10.170;2022-11-11T10:51:57;15.77;;;8.20;;
50605;SDS011;36557;53.572;10.170;2022-11-11T10:54:45;13.95;;;7.80;;
50605;SDS011;36557;53.572;10.170;2022-11-11T10:59:59;14.05;;;8.02;;
50605;SDS011;36557;53.572;10.170;2022-11-11T11:05:28;18.00;;;8.77;;
50605;SDS011;36557;53.572;10.170;2022-11-11T11:08:01;18.15;;;8.88;;
50605;SDS011;36557;53.572;10.170;2022-11-11T11:10:38;12.98;;;7.68;;
50605;SDS011;36557;53.572;10.170;2022-11-11T11:13:20;14.45;;;8.00;;
50605;SDS011;36557;53.572;10.170;2022-11-11T11:15:55;18.15;;;8.82;;
50605;SDS011;36557;53.572;10.170;2022-11-11T11:18:24;14.48;;;8.63;;
50605;SDS011;36557;53.572;10.170;2022-11-11T11:21:03;18.38;;;8.90;;
50605;SDS011;36557;53.572;10.170;2022-11-11T11:23:38;11.73;;;7.75;;
50605;SDS011;36557;53.572;10.170;2022-11-11T11:26:06;18.87;;;9.47;;
50605;SDS011;36557;53.572;10.170;2022-11-11T11:28:34;16.45;;;9.70;;
50605;SDS011;36557;53.572;10.170;2022-11-11T11:33:49;18.35;;;9.40;;
50605;SDS011;36557;53.572;10.170;2022-11-11T11:36:17;15.90;;;8.98;;
50605;SDS011;36557;53.572;10.170;2022-11-11T11:38:44;13.80;;;8.88;;
50605;SDS011;36557;53.572;10.170;2022-11-11T11:41:11;14.45;;;8.63;;
50605;SDS011;36557;53.572;10.170;2022-11-11T11:43:38;17.42;;;8.80;;
50605;SDS011;36557;53.572;10.170;2022-11-11T11:46:18;17.35;;;8.35;;
50605;SDS011;36557;53.572;10.170;2022-11-11T11:48:53;19.95;;;9.15;;
50605;SDS011;36557;53.572;10.170;2022-11-11T12:05:32;18.25;;;9.50;;
50605;SDS011;36557;53.572;10.170;2022-11-11T12:13:27;15.65;;;9.35;;
50605;SDS011;36557;53.572;10.170;2022-11-11T12:16:22;18.50;;;9.10;;
50605;SDS011;36557;53.572;10.170;2022-11-11T12:19:40;18.15;;;9.07;;
50605;SDS011;36557;53.572;10.170;2022-11-11T12:22:01;16.92;;;9.27;;
50605;SDS011;36557;53.572;10.170;2022-11-11T12:27:38;14.85;;;8.85;;
50605;SDS011;36557;53.572;10.170;2022-11-11T12:30:13;15.88;;;9.93;;
50605;SDS011;36557;53.572;10.170;2022-11-11T12:54:14;14.57;;;7.22;;
50605;SDS011;36557;53.572;10.170;2022-11-11T13:05:05;13.38;;;8.70;;
50605;SDS011;36557;53.572;10.170;2022-11-11T13:13:15;13.15;;;7.53;;
50605;SDS011;36557;53.572;10.170;2022-11-11T13:16:06;10.63;;;7.10;;
50605;SDS011;36557;53.572;10.170;2022-11-11T13:18:44;11.32;;;7.20;;
50605;SDS011;36557;53.572;10.170;2022-11-11T13:21:51;11.15;;;7.38;;
50605;SDS011;36557;53.572;10.170;2022-11-11T13:24:11;14.15;;;7.85;;
50605;SDS011;36557;53.572;10.170;2022-11-11T13:26:41;11.88;;;6.97;;
50605;SDS011;36557;53.572;10.170;2022-11-11T13:32:08;8.52;;;6.32;;
50605;SDS011;36557;53.572;10.170;2022-11-11T13:34:37;13.13;;;7.35;;
50605;SDS011;36557;53.572;10.170;2022-11-11T13:37:05;11.13;;;7.32;;
50605;SDS011;36557;53.572;10.170;2022-11-11T13:39:43;11.73;;;7.95;;
50605;SDS011;36557;53.572;10.170;2022-11-11T13:42:12;12.30;;;7.40;;
50605;SDS011;36557;53.572;10.170;2022-11-11T13:47:28;10.63;;;7.82;;
50605;SDS011;36557;53.572;10.170;2022-11-11T13:50:25;12.15;;;6.60;;
50605;SDS011;36557;53.572;10.170;2022-11-11T13:52:58;13.70;;;6.95;;
50605;SDS011;36557;53.572;10.170;2022-11-11T13:55:31;10.10;;;7.40;;
50605;SDS011;36557;53.572;10.170;2022-11-11T13:58:24;14.20;;;7.97;;
50605;SDS011;36557;53.572;10.170;2022-11-11T14:01:01;12.73;;;7.93;;
50605;SDS011;36557;53.572;10.170;2022-11-11T14:03:32;11.73;;;7.50;;
50605;SDS011;36557;53.572;10.170;2022-11-11T14:08:51;12.55;;;7.60;;
50605;SDS011;36557;53.572;10.170;2022-11-11T14:13:50;11.65;;;7.50;;
50605;SDS011;36557;53.572;10.170;2022-11-11T14:24:24;11.75;;;7.50;;
50605;SDS011;36557;53.572;10.170;2022-11-11T14:27:24;13.75;;;8.30;;
50605;SDS011;36557;53.572;10.170;2022-11-11T14:29:53;13.35;;;7.90;;
50605;SDS011;36557;53.572;10.170;2022-11-11T14:35:14;14.32;;;8.70;;
50605;SDS011;36557;53.572;10.170;2022-11-11T14:40:25;14.65;;;8.98;;
50605;SDS011;36557;53.572;10.170;2022-11-11T14:42:53;16.67;;;9.98;;
50605;SDS011;36557;53.572;10.170;2022-11-11T14:47:49;18.25;;;10.13;;
50605;SDS011;36557;53.572;10.170;2022-11-11T14:52:56;14.35;;;9.50;;
50605;SDS011;36557;53.572;10.170;2022-11-11T14:55:37;12.55;;;8.40;;
50605;SDS011;36557;53.572;10.170;2022-11-11T15:03:45;15.20;;;10.15;;
50605;SDS011;36557;53.572;10.170;2022-11-11T15:06:18;16.92;;;9.55;;
50605;SDS011;36557;53.572;10.170;2022-11-11T15:11:39;19.90;;;12.40;;
50605;SDS011;36557;53.572;10.170;2022-11-11T15:19:55;22.60;;;13.75;;
50605;SDS011;36557;53.572;10.170;2022-11-11T15:27:54;13.90;;;9.55;;
50605;SDS011;36557;53.572;10.170;2022-11-11T15:39:15;13.45;;;8.40;;
50605;SDS011;36557;53.572;10.170;2022-11-11T15:41:46;15.43;;;8.27;;
50605;SDS011;36557;53.572;10.170;2022-11-11T15:44:18;13.30;;;9.20;;
50605;SDS011;36557;53.572;10.170;2022-11-11T15:46:49;12.60;;;9.18;;
50605;SDS011;36557;53.572;10.170;2022-11-11T15:52:01;13.13;;;9.45;;
50605;SDS011;36557;53.572;10.170;2022-11-11T15:54:27;18.17;;;10.35;;
50605;SDS011;36557;53.572;10.170;2022-11-11T15:56:52;14.13;;;9.05;;
50605;SDS011;36557;53.572;10.170;2022-11-11T15:59:29;15.07;;;8.88;;
50605;SDS011;36557;53.572;10.170;2022-11-11T16:01:59;15.00;;;9.10;;
50605;SDS011;36557;53.572;10.170;2022-11-11T16:04:25;13.10;;;8.80;;
50605;SDS011;36557;53.572;10.170;2022-11-11T16:06:50;15.70;;;8.95;;
50605;SDS011;36557;53.572;10.170;2022-11-11T16:09:18;11.75;;;8.20;;
50605;SDS011;36557;53.572;10.170;2022-11-11T16:11:50;13.90;;;8.75;;
50605;SDS011;36557;53.572;10.170;2022-11-11T16:14:22;13.15;;;8.30;;
50605;SDS011;36557;53.572;10.170;2022-11-11T16:16:54;12.55;;;8.80;;
50605;SDS011;36557;53.572;10.170;2022-11-11T16:19:25;15.90;;;8.60;;
50605;SDS011;36557;53.572;10.170;2022-11-11T16:22:20;16.52;;;9.23;;
50605;SDS011;36557;53.572;10.170;2022-11-11T16:24:50;14.48;;;9.23;;
50605;SDS011;36557;53.572;10.170;2022-11-11T16:27:17;14.20;;;9.00;;
50605;SDS011;36557;53.572;10.170;2022-11-11T16:29:46;15.45;;;9.02;;
50605;SDS011;36557;53.572;10.170;2022-11-11T16:32:17;12.40;;;8.90;;
50605;SDS011;36557;53.572;10.170;2022-11-11T16:34:50;12.55;;;9.00;;
50605;SDS011;36557;53.572;10.170;2022-11-11T16:37:18;14.10;;;8.70;;
50605;SDS011;36557;53.572;10.170;2022-11-11T16:39:45;14.93;;;8.77;;
50605;SDS011;36557;53.572;10.170;2022-11-11T16:42:18;12.13;;;7.57;;
50605;SDS011;36557;53.572;10.170;2022-11-11T16:44:59;14.50;;;8.73;;
50605;SDS011;36557;53.572;10.170;2022-11-11T16:50:02;13.93;;;9.02;;
50605;SDS011;36557;53.572;10.170;2022-11-11T16:55:27;15.15;;;8.93;;
50605;SDS011;36557;53.572;10.170;2022-11-11T16:57:59;12.40;;;8.73;;
50605;SDS011;36557;53.572;10.170;2022-11-11T17:00:27;11.30;;;8.25;;
50605;SDS011;36557;53.572;10.170;2022-11-11T17:05:50;14.95;;;8.32;;
50605;SDS011;36557;53.572;10.170;2022-11-11T17:08:27;12.07;;;8.15;;
50605;SDS011;36557;53.572;10.170;2022-11-11T17:11:00;15.27;;;8.85;;
50605;SDS011;36557;53.572;10.170;2022-11-11T17:13:28;13.32;;;8.75;;
50605;SDS011;36557;53.572;10.170;2022-11-11T17:15:54;11.85;;;7.80;;
50605;SDS011;36557;53.572;10.170;2022-11-11T17:18:28;13.40;;;8.02;;
50605;SDS011;36557;53.572;10.170;2022-11-11T17:20:56;13.05;;;8.80;;
50605;SDS011;36557;53.572;10.170;2022-11-11T17:23:22;11.52;;;8.25;;
50605;SDS011;36557;53.572;10.170;2022-11-11T17:25:48;13.20;;;8.00;;